Nanaimo Airport
CYCD : now visible

Airfield :











YOU CAN JOIN US ON...

 
LOGIN :

Register | Disclaimer

   EN    FR    IT 

 









Legend :    VFR   Marginal VFR   IFR   Intensive IFR   Very Intensive IFR
Visi :
Ceiling :
>= 8 km
>= 3000ft
5 to 8 km
1000 to 3000 ft
1500m to 5 km
500 to 1000 ft
800 to 1500m
200 to 500 ft
< 800m
< 200 ft
Symbols :   Thunderstorms  Fog  Heavy snow  Heavy precipitations  Wind > 20 kt






- Airport Elevation : 93 ft
- IATA code : YCD


CYCD - Nanaimo

CURRENT METAR :
  • 030100Z 18003KT 150V240 15SM SCT020 BKN040 OVC050 06/03 A3014 RMK CU3CU3SC2 SLP210

EXPIRED METARs :
  • 030000Z 16007KT 15SM SCT020 BKN046TCU OVC072 07/03 A3015 RMK SC3TCU3AC2 VIS LWR SW SLP213
  • 022300Z 13004KT 040V190 20SM SCT023 BKN032 BKN070 06/02 A3015 RMK CU3CU3AC1 SLP214

TAF AMD TAF CYCD
Valid from the 02 at 22:00 until the 03 at 04:00 UTC


022219Z 0222/0304 10005KT P6SM SCT030 BKN070
TEMPO 0222/0304 6SM -SHRA BKN020 OVC070 RMK NXT FCST BY 030000Z



MET'MAP, your aeronautical weather chart ! - Copyright ORBIFLY December 2007 - Disclaimer

ORBIFLY MET'MAP TEAM :

Programming & Development : Alexandra Zaïnal
Concept & original design : Baudouin d'Aumeries
Assistance for programming : Marc-Olivier Méhu
Technical & hardware support : Manuel Goepfert

Contact : metmap@orbifly.com




SOURCES & CREDITS :

   NOAA       Earth
Advisory